Latest Weather Observations for Cairns

IDQ60801

Issued at 9:05 am EST Wednesday 3 September 2014 (issued every 30 minutes, with the page automatically refreshed every 10 minutes)

About weather observations | Map of weather stations | Latest weather observations for QLD | Other Formats
Station Details ID: 031011 Name: CAIRNS AERO Lat: -16.87 Lon: 145.75 Height: 2.22 m
Data from the previous 72 hours. | See also: Recent months at Cairns
Date/Time
EST
Temp
°C
App
Temp
°C
Dew
Point
Rel
Hum
%
Delta-T
°C
Wind Press
QNH
hPa
Press
MSL
hPa
Rain
since 9 am
mm
Dir
 
Spd
km/h
Gust
km/h
Spd
kts
Gust
kts
03/09:00am 21.8 18.2 9.7 46 6.5 ESE 19 24 10 13 1015.7 - 0.0
03/08:30am 20.6 21.5 12.8 61 4.4 ENE 0 4 0 2 1015.6 - 0.0
03/08:00am 18.1 17.7 12.9 71 2.9 NNW 7 9 4 5 1015.5 - 0.0
03/07:30am 17.3 16.2 11.8 70 3.0 ESE 9 13 5 7 1015.5 - 0.0
03/07:00am 14.2 15.1 12.9 92 0.7 CALM 0 0 0 0 1015.1 - 0.0
03/06:30am 13.6 13.1 12.1 91 0.8 NNE 6 7 3 4 1014.8 - 0.0
03/06:00am 13.1 13.9 12.4 95 0.4 CALM 0 0 0 0 1014.4 1014.3 0.0
03/05:30am 13.7 14.5 12.6 93 0.6 CALM 0 0 0 0 1014.3 - 0.0
03/05:00am 13.7 13.1 12.4 92 0.7 WNW 7 11 4 6 1014.0 - 0.0
03/04:30am 12.3 12.8 11.7 96 0.3 W 0 0 0 0 1013.8 - 0.0
03/04:00am 13.3 13.0 12.7 96 0.3 WNW 6 7 3 4 1013.9 - 0.0
03/03:30am 13.7 14.7 13.2 97 0.3 CALM 0 0 0 0 1014.2 - 0.0
03/03:01am 14.3 15.4 13.6 96 0.4 CALM 0 0 0 0 1014.7 - 0.0
03/03:00am 14.3 15.4 13.6 96 0.4 CALM 0 - 0 - - 1014.6 0.0
03/02:30am 14.2 15.4 13.8 97 0.2 CALM 0 - 0 - 1015.0 - 0.0
03/02:00am 14.3 15.5 13.9 97 0.2 CALM 0 - 0 - 1015.4 - 0.0
03/01:50am 15.1 16.6 14.6 97 0.3 CALM 0 - 0 - 1015.5 - 0.0
03/01:36am 15.1 16.6 14.6 97 0.3 CALM 0 - 0 - 1015.5 - 0.0
03/01:29am 14.8 16.2 14.4 97 0.2 CALM 0 - 0 - 1015.6 - 0.0
03/01:00am 14.8 16.2 14.4 97 0.2 CALM 0 0 0 0 1015.8 - 0.0
03/12:30am 15.8 16.4 15.3 97 0.3 W 6 7 3 4 1016.0 - 0.0
03/12:00am 15.7 16.3 15.2 97 0.3 WNW 6 7 3 4 1016.1 1016.0 0.0
 
Date/Time
EST
Temp
°C
App
Temp
°C
Dew
Point
Rel
Hum
%
Delta-T
°C
Wind Press
QNH
hPa
Press
MSL
hPa
Rain
since 9 am
mm
Dir
 
Spd
km/h
Gust
km/h
Spd
kts
Gust
kts
02/11:30pm 15.9 17.2 15.2 96 0.4 WSW 2 7 1 4 1016.1 - 0.0
02/11:03pm 16.4 17.1 15.7 96 0.4 W 6 7 3 4 1016.3 - 0.0
02/10:30pm 16.8 17.9 15.6 93 0.7 W 4 7 2 4 1016.3 - 0.0
02/10:00pm 17.5 17.8 16.0 91 0.9 W 9 9 5 5 1016.3 - 0.0
02/09:30pm 18.0 18.3 16.1 89 1.1 W 9 13 5 7 1016.5 - 0.0
02/09:00pm 18.1 18.5 16.4 90 1.0 W 9 13 5 7 1016.4 1016.3 0.0
02/08:30pm 18.7 19.3 16.7 88 1.2 W 9 11 5 6 1016.2 - 0.0
02/08:00pm 20.0 20.6 16.7 81 2.0 W 9 11 5 6 1015.8 - 0.0
02/07:30pm 20.5 20.8 16.9 80 2.2 W 11 13 6 7 1015.5 - 0.0
02/07:00pm 20.8 21.5 17.0 79 2.3 W 9 11 5 6 1015.3 - 0.0
02/06:30pm 21.1 21.8 17.0 77 2.5 WNW 9 13 5 7 1015.1 - 0.0
02/06:00pm 21.5 22.2 17.1 76 2.7 NW 9 11 5 6 1014.9 1014.8 0.0
02/05:30pm 22.5 22.6 16.6 69 3.6 NNW 11 15 6 8 1014.8 - 0.0
02/05:00pm 22.9 22.0 16.9 69 3.7 N 17 20 9 11 1014.7 - 0.0
02/04:30pm 23.7 22.7 16.5 64 4.4 N 17 20 9 11 1014.6 - 0.0
02/04:00pm 24.5 23.7 16.1 59 5.1 N 15 22 8 12 1014.4 - 0.0
02/03:30pm 24.9 23.4 16.8 60 5.0 N 20 26 11 14 1014.4 - 0.0
02/03:00pm 25.4 23.5 15.1 53 6.2 NE 19 28 10 15 1014.6 1014.5 0.0
02/02:30pm 24.9 22.9 15.5 56 5.7 NE 20 30 11 16 1014.9 - 0.0
02/02:00pm 25.3 22.5 15.4 54 6.0 ENE 24 32 13 17 1015.2 - 0.0
02/01:30pm 25.6 22.9 14.5 50 6.6 NE 22 30 12 16 1015.6 - 0.0
02/01:00pm 26.1 23.1 13.7 46 7.3 NE 22 30 12 16 1015.9 - 0.0
02/12:30pm 26.0 23.1 14.0 47 7.1 ENE 22 28 12 15 1016.4 - 0.0
02/12:00pm 26.0 22.6 12.5 43 7.8 ENE 22 28 12 15 1016.9 1016.8 0.0
02/11:30am 25.6 22.9 12.8 45 7.4 NNE 19 26 10 14 1017.3 - 0.0
02/11:00am 26.0 24.1 10.4 37 8.7 ENE 11 20 6 11 1017.7 - 0.0
02/10:30am 25.1 23.5 10.3 39 8.2 SE 9 17 5 9 1018.2 - 0.0
02/10:00am 24.4 21.8 9.3 38 8.2 SE 13 17 7 9 1018.5 - 0.0
02/09:30am 22.7 20.8 11.8 50 6.1 SE 13 15 7 8 1018.7 - 0.0
02/09:00am 21.7 20.1 12.7 56 5.1 SE 13 17 7 9 1018.7 1018.6 0.0
02/08:30am 19.5 19.3 13.5 68 3.4 WNW 7 9 4 5 1018.5 - 0.0
02/08:00am 18.3 18.1 13.1 71 2.9 NNW 6 9 3 5 1018.3 - 0.0
02/07:30am 16.4 15.8 13.4 82 1.7 WNW 9 11 5 6 1018.1 - 0.0
02/07:00am 15.3 14.1 12.9 85 1.3 SSW 11 19 6 10 1017.8 - 0.0
02/06:30am 12.9 12.8 12.2 95 0.4 W 4 7 2 4 1017.6 - 0.0
02/06:00am 14.4 13.6 12.8 90 0.9 WSW 9 11 5 6 1017.5 1017.4 0.0
02/05:30am 15.1 14.6 12.7 85 1.3 SSW 7 11 4 6 1017.3 - 0.0
02/05:00am 15.0 13.0 12.6 85 1.3 SSE 15 19 8 10 1017.1 - 0.0
02/04:30am 15.7 15.2 12.6 82 1.7 SW 7 11 4 6 1017.1 - 0.0
02/04:00am 16.5 12.3 12.5 77 2.2 SSE 26 30 14 16 1017.1 - 0.0
02/03:30am 15.7 15.2 12.8 83 1.6 S 7 13 4 7 1017.1 - 0.0
02/03:00am 16.7 15.1 12.7 77 2.2 SSE 13 22 7 12 1017.2 1017.1 0.0
02/02:30am 14.8 15.7 13.0 89 1.0 CALM 0 2 0 1 1017.7 - 0.0
02/02:00am 15.4 15.1 13.4 88 1.1 W 7 7 4 4 1017.8 - 0.0
02/01:30am 16.7 15.9 12.9 78 2.1 S 9 13 5 7 1017.8 - 0.0
02/01:00am 17.0 16.6 13.1 78 2.2 S 7 11 4 6 1018.0 - 0.0
02/12:30am 16.9 16.7 13.1 78 2.1 S 6 11 3 6 1017.9 - 0.0
02/12:00am 17.2 17.8 13.1 77 2.3 ENE 2 7 1 4 1018.2 1018.1 0.0
 
Date/Time
EST
Temp
°C
App
Temp
°C
Dew
Point
Rel
Hum
%
Delta-T
°C
Wind Press
QNH
hPa
Press
MSL
hPa
Rain
since 9 am
mm
Dir
 
Spd
km/h
Gust
km/h
Spd
kts
Gust
kts
01/11:30pm 18.4 18.1 12.7 69 3.2 SSE 6 11 3 6 1018.2 - 0.0
01/11:00pm 18.7 18.2 12.8 68 3.3 SE 7 11 4 6 1018.3 - 0.0
01/10:30pm 19.7 18.8 12.6 63 4.0 S 9 13 5 7 1018.3 - 0.0
01/10:00pm 20.5 19.6 12.5 60 4.5 S 9 15 5 8 1018.5 - 0.0
01/09:30pm 20.3 19.4 12.7 61 4.3 SSW 9 17 5 9 1018.4 - 0.0
01/09:00pm 20.4 19.6 12.8 61 4.3 SSW 9 15 5 8 1018.3 1018.2 0.0
01/08:30pm 20.7 19.3 12.3 58 4.7 S 11 15 6 8 1018.1 - 0.0
01/08:00pm 20.9 19.0 11.9 56 5.0 S 13 19 7 10 1017.8 - 0.0
01/07:30pm 20.5 19.1 12.3 59 4.6 SSE 11 17 6 9 1017.3 - 0.0
01/07:00pm 21.1 18.9 12.2 56 5.0 S 15 19 8 10 1017.1 - 0.0
01/06:30pm 21.7 18.7 11.9 53 5.5 SE 19 26 10 14 1016.6 - 0.0
01/06:00pm 22.2 18.1 11.6 51 5.9 SE 24 30 13 16 1016.3 1016.2 0.0
01/05:30pm 23.2 18.3 11.4 47 6.6 SE 28 37 15 20 1015.8 - 0.0
01/05:00pm 24.2 19.1 11.8 45 7.0 SE 30 37 16 20 1015.6 - 0.0
01/04:30pm 24.7 19.3 10.9 42 7.7 SE 30 39 16 21 1015.3 - 0.0
01/04:00pm 25.1 19.7 10.8 40 8.0 SE 30 33 16 18 1015.0 - 0.0
01/03:30pm 25.2 20.3 11.4 42 7.8 ESE 28 39 15 21 1014.9 - 0.0
01/03:00pm 25.4 20.4 13.4 47 7.0 ESE 32 41 17 22 1014.9 1014.8 0.0
01/02:30pm 24.9 19.5 12.3 45 7.2 ESE 32 37 17 20 1015.1 - 0.0
01/02:00pm 25.4 19.6 10.7 39 8.2 ESE 32 39 17 21 1015.4 - 0.0
01/01:30pm 26.5 21.2 11.1 38 8.7 ESE 30 35 16 19 1015.8 - 0.0
01/01:00pm 26.3 21.6 12.0 41 8.2 ESE 28 35 15 19 1016.3 - 0.0
01/12:30pm 26.1 21.7 11.7 40 8.2 ESE 26 35 14 19 1016.7 - 0.0
01/12:00pm 26.1 22.1 11.7 40 8.2 ESE 24 30 13 16 1017.2 1017.1 0.0
01/11:30am 26.1 22.4 12.6 43 7.8 ESE 24 33 13 18 1017.7 - 0.0
01/11:00am 26.4 21.7 10.7 37 8.8 SE 26 33 14 18 1018.2 - 0.0
01/10:30am 25.0 22.2 12.5 45 7.2 S 19 30 10 16 1018.6 - 0.0
01/10:00am 24.7 22.2 13.4 49 6.6 SSE 19 26 10 14 1018.7 - 0.0
01/09:30am 23.9 21.3 13.2 51 6.2 S 19 28 10 15 1018.9 - 0.0
01/09:00am 23.2 21.1 12.3 50 6.2 S 15 22 8 12 1018.4 1018.3 0.0
01/08:30am 20.4 17.0 12.6 61 4.4 SE 22 26 12 14 1018.4 - 0.0
01/08:00am 18.5 15.1 12.6 68 3.3 SE 22 28 12 15 1017.8 - 0.0
01/07:30am 17.7 14.7 12.7 72 2.8 SE 20 26 11 14 1017.4 - 0.0
01/07:00am 16.1 13.3 13.2 83 1.6 SSE 20 24 11 13 1017.1 - 0.0
01/06:30am 15.9 13.6 13.0 83 1.6 SE 17 22 9 12 1016.9 - 0.0
01/06:00am 16.3 12.7 13.1 81 1.8 SE 24 28 13 15 1016.7 1016.6 0.0
01/05:30am 16.1 13.0 13.4 84 1.5 SE 22 26 12 14 1016.5 - 0.0
01/05:00am 16.7 14.1 13.3 80 1.9 SE 19 24 10 13 1016.3 - 0.0
01/04:30am 17.0 14.3 13.6 80 1.9 SE 20 26 11 14 1016.1 - 0.0
01/04:00am 16.9 14.5 13.7 81 1.8 SE 19 20 10 11 1016.1 - 0.0
01/03:30am 16.6 14.3 14.0 84 1.5 SE 19 22 10 12 1016.1 - 0.0
01/03:00am 16.6 15.0 14.0 84 1.5 SSE 15 19 8 10 1016.1 1016.0 0.0
01/02:30am 16.8 15.2 14.0 83 1.6 SSE 15 19 8 10 1016.5 - 0.0
01/02:00am 17.0 15.1 14.2 83 1.6 SSE 17 20 9 11 1016.8 - 0.0
01/01:30am 17.2 14.9 14.2 82 1.7 SE 19 20 10 11 1016.9 - 0.0
01/01:00am 17.7 15.3 14.4 81 1.9 SE 20 24 11 13 1017.0 - 0.0
01/12:30am 17.7 15.6 14.6 82 1.8 SE 19 20 10 11 1017.1 - 0.0
01/12:00am 17.9 16.6 14.8 82 1.8 SE 15 19 8 10 1017.3 1017.2 0.0
 
Date/Time
EST
Temp
°C
App
Temp
°C
Dew
Point
Rel
Hum
%
Delta-T
°C
Wind Press
QNH
hPa
Press
MSL
hPa
Rain
since 9 am
mm
Dir
 
Spd
km/h
Gust
km/h
Spd
kts
Gust
kts
31/11:30pm 17.5 16.9 14.7 83 1.6 SSE 11 13 6 7 1017.6 - 0.0
31/11:00pm 18.0 17.4 14.7 81 1.9 SE 11 15 6 8 1017.5 - 0.0
31/10:30pm 18.6 18.1 14.8 78 2.2 ESE 11 13 6 7 1017.5 - 0.0
31/10:00pm 19.1 18.1 14.6 75 2.6 SSE 13 17 7 9 1017.6 - 0.0
31/09:30pm 19.8 18.5 14.8 73 2.9 S 15 20 8 11 1017.4 - 0.0
31/09:00pm 20.2 18.9 14.9 71 3.1 S 15 19 8 10 1017.3 1017.2 0.0
31/08:30pm 20.3 19.0 14.8 70 3.2 S 15 20 8 11 1017.0 - 0.0
31/08:00pm 20.3 19.3 14.5 69 3.4 SSE 13 19 7 10 1016.7 - 0.0
31/07:30pm 20.6 19.3 14.8 69 3.4 S 15 26 8 14 1016.4 - 0.0
31/07:00pm 21.2 19.1 15.1 68 3.6 SSE 20 30 11 16 1015.9 - 0.0
31/06:30pm 21.4 17.9 14.6 65 4.0 SE 26 32 14 17 1015.6 - 0.0
31/06:00pm 21.8 18.6 14.3 62 4.4 SE 24 32 13 17 1015.1 1015.0 0.0
31/05:30pm 22.7 18.6 13.8 57 5.2 SE 28 35 15 19 1014.7 - 0.0
31/05:00pm 23.4 18.7 13.2 52 5.9 SE 30 37 16 20 1014.4 - 0.0
31/04:30pm 24.1 18.8 12.4 48 6.7 SE 32 37 17 20 1014.2 - 0.0
31/04:00pm 24.8 19.2 11.5 43 7.5 SE 32 39 17 21 1013.9 - 0.0
31/03:30pm 25.2 18.8 8.4 34 9.0 SE 32 41 17 22 1013.8 - 0.0
31/03:00pm 26.5 19.8 8.1 31 9.9 SE 33 39 18 21 1013.8 1013.7 0.0
31/02:30pm 26.5 21.0 10.7 37 8.9 SE 30 35 16 19 1014.0 - 0.0
31/02:00pm 26.2 21.0 11.6 40 8.3 ESE 30 37 16 20 1014.3 - 0.0
31/01:30pm 26.9 22.6 11.9 39 8.6 ESE 26 35 14 19 1014.6 - 0.0
31/01:00pm 26.3 22.2 12.7 43 7.9 ESE 26 37 14 20 1014.9 - 0.0
31/12:30pm 26.2 21.5 12.1 41 8.1 SE 28 35 15 19 1015.5 - 0.0
31/12:00pm 26.5 22.7 12.3 41 8.2 E 24 33 13 18 1016.0 1015.9 0.0
31/11:30am 26.0 23.2 13.1 44 7.5 ESE 20 32 11 17 1016.4 - 0.0
31/11:00am 26.5 24.1 13.8 45 7.5 ESE 19 28 10 15 1016.9 - 0.0
31/10:30am 24.8 22.6 14.5 52 6.1 SSE 19 26 10 14 1017.4 - 0.0
31/10:00am 24.9 22.4 14.2 51 6.3 SSE 20 30 11 16 1017.7 - 0.0
31/09:30am 23.5 21.0 14.1 55 5.5 S 20 32 11 17 1017.8 - 0.0

Other Formats:

Comma delimited format used in spreadsheet applications
http://www.bom.gov.au/fwo/IDQ60801/IDQ60801.94287.axf

JavaScript Object Notation format (JSON) in row-major order
http://www.bom.gov.au/fwo/IDQ60801/IDQ60801.94287.json